^^
Station Historical Data
Daily Summary for July 28, 2021 Units:  English    Metric   Both
Daily Weekly Monthly Yearly
  High: Low: Average:
Temperature: 78.5 °F 64.1 °F 72 °F
Dew Point: 69.5 °F 61 °F 65.9 °F
Humidity: 92% 63% 82%
Wind Speed: 4mph 0mph 1.7mph
Wind Gust: 7mph - -
Wind- - ESE
Pressure: 30.03 in 29.88 in -
Precipitation: 0.01 in    
 
 
Tabular Data for July 28, 2021
Time Temperature Dew Point Pressure Wind Wind Speed Wind Gust Humidity Rainfall Rate (Hourly) solar
00:00 69.7 °F 66 °F 29.96 in SE 1 mph 1 mph 88% 0.00 in 0 W/m2
00:05 69.8 °F 66.1 °F 29.96 in ESE 1 mph 2 mph 88% 0.00 in 0 W/m2
00:10 69.9 °F 65.9 °F 29.96 in South 1 mph 1 mph 87% 0.00 in 0 W/m2
00:15 70 °F 66 °F 29.96 in East 1 mph 1 mph 87% 0.00 in 0 W/m2
00:20 69.9 °F 65.9 °F 29.96 in SE 1 mph 1 mph 87% 0.00 in 0 W/m2
00:25 69.9 °F 65.9 °F 29.96 in East 1 mph 4 mph 87% 0.00 in 0 W/m2
00:30 69.9 °F 65.9 °F 29.97 in NE 1 mph 1 mph 87% 0.00 in 0 W/m2
00:35 69.8 °F 65.8 °F 29.96 in ENE 1 mph 1 mph 87% 0.00 in 0 W/m2
00:40 69.7 °F 65.7 °F 29.97 in NE 1 mph 1 mph 87% 0.00 in 0 W/m2
00:45 69.5 °F 65.5 °F 29.97 in ENE 1 mph 2 mph 87% 0.00 in 0 W/m2
00:50 69.3 °F 65.3 °F 29.97 in NE 1 mph 2 mph 87% 0.00 in 0 W/m2
00:55 69.2 °F 65.2 °F 29.97 in NE 1 mph 2 mph 87% 0.00 in 0 W/m2
01:00 69 °F 65 °F 29.97 in NE 1 mph 1 mph 87% 0.00 in 0 W/m2
01:05 68.9 °F 64.9 °F 29.97 in NE 1 mph 1 mph 87% 0.00 in 0 W/m2
01:10 68.8 °F 64.8 °F 29.97 in North 1 mph 1 mph 87% 0.00 in 0 W/m2
01:15 68.7 °F 64.7 °F 29.97 in NNE 1 mph 1 mph 87% 0.00 in 0 W/m2
01:20 68.6 °F 64.9 °F 29.97 in NNE 1 mph 3 mph 88% 0.00 in 0 W/m2
01:30 68.3 °F 64.6 °F 29.97 in ENE 2 mph 2 mph 88% 0.00 in 0 W/m2
01:35 68.3 °F 64.6 °F 29.97 in NE 1 mph 2 mph 88% 0.00 in 0 W/m2
01:40 68.3 °F 64.6 °F 29.97 in East 2 mph 2 mph 88% 0.00 in 0 W/m2
01:45 68.2 °F 64.8 °F 29.97 in NE 2 mph 2 mph 89% 0.00 in 0 W/m2
01:50 68.2 °F 64.8 °F 29.97 in NE 2 mph 2 mph 89% 0.00 in 0 W/m2
01:55 68 °F 64.3 °F 29.97 in NE 1 mph 2 mph 88% 0.00 in 0 W/m2
02:00 67.9 °F 64.2 °F 29.97 in ESE 1 mph 2 mph 88% 0.00 in 0 W/m2
02:05 67.8 °F 64.1 °F 29.97 in NE 1 mph 2 mph 88% 0.00 in 0 W/m2
02:10 67.8 °F 64.1 °F 29.97 in NE 1 mph 1 mph 88% 0.00 in 0 W/m2
02:15 67.7 °F 64 °F 29.97 in NE 1 mph 2 mph 88% 0.00 in 0 W/m2
02:20 67.6 °F 63.9 °F 29.97 in East 1 mph 3 mph 88% 0.00 in 0 W/m2
02:25 67.5 °F 63.8 °F 29.97 in ESE 1 mph 3 mph 88% 0.00 in 0 W/m2
02:30 67.4 °F 63.7 °F 29.97 in ESE 2 mph 2 mph 88% 0.00 in 0 W/m2
02:35 67.4 °F 63.7 °F 29.97 in NNW 1 mph 2 mph 88% 0.00 in 0 W/m2
02:40 67.4 °F 64 °F 29.97 in SE 1 mph 1 mph 89% 0.00 in 0 W/m2
02:45 67.4 °F 64 °F 29.97 in East 1 mph 1 mph 89% 0.00 in 0 W/m2
02:50 67.3 °F 63.9 °F 29.97 in ENE 1 mph 2 mph 89% 0.00 in 0 W/m2
02:55 67.3 °F 63.9 °F 29.97 in ENE 1 mph 2 mph 89% 0.00 in 0 W/m2
03:00 67.3 °F 63.9 °F 29.98 in East 1 mph 1 mph 89% 0.00 in 0 W/m2
03:05 67.3 °F 63.9 °F 29.98 in ENE 1 mph 1 mph 89% 0.00 in 0 W/m2
03:10 67.2 °F 63.8 °F 29.98 in ENE 1 mph 1 mph 89% 0.00 in 0 W/m2
03:15 67.2 °F 63.8 °F 29.98 in ENE 1 mph 1 mph 89% 0.00 in 0 W/m2
03:20 67.1 °F 63.7 °F 29.98 in East 1 mph 2 mph 89% 0.00 in 0 W/m2
03:25 67.1 °F 63.7 °F 29.98 in East 1 mph 2 mph 89% 0.00 in 0 W/m2
03:30 67 °F 63.6 °F 29.98 in ENE 1 mph 1 mph 89% 0.00 in 0 W/m2
03:35 67 °F 63.6 °F 29.98 in East 1 mph 2 mph 89% 0.00 in 0 W/m2
03:40 67 °F 63.6 °F 29.98 in NE 1 mph 1 mph 89% 0.00 in 0 W/m2
03:45 66.9 °F 63.9 °F 29.98 in East 1 mph 2 mph 90% 0.00 in 0 W/m2
03:50 66.8 °F 63.8 °F 29.98 in ESE 1 mph 2 mph 90% 0.00 in 0 W/m2
03:55 66.7 °F 63.7 °F 29.98 in ENE 1 mph 3 mph 90% 0.00 in 0 W/m2
04:00 66.7 °F 63.7 °F 29.98 in East 1 mph 1 mph 90% 0.00 in 0 W/m2
04:05 66.7 °F 63.7 °F 29.98 in ENE 2 mph 2 mph 90% 0.00 in 0 W/m2
04:10 66.6 °F 63.6 °F 29.98 in East 2 mph 2 mph 90% 0.00 in 0 W/m2
04:15 66.6 °F 63.6 °F 29.98 in NE 2 mph 2 mph 90% 0.00 in 0 W/m2
04:20 66.6 °F 63.6 °F 29.98 in East 1 mph 2 mph 90% 0.00 in 0 W/m2
04:25 66.6 °F 63.6 °F 29.98 in ENE 1 mph 2 mph 90% 0.00 in 0 W/m2
04:30 66.5 °F 63.5 °F 29.99 in ENE 1 mph 2 mph 90% 0.00 in 0 W/m2
04:35 66.4 °F 63.4 °F 29.99 in ENE 1 mph 2 mph 90% 0.00 in 0 W/m2
04:40 66.3 °F 63.3 °F 29.99 in NE 1 mph 1 mph 90% 0.00 in 0 W/m2
04:45 66.2 °F 63.2 °F 29.99 in ENE 1 mph 1 mph 90% 0.00 in 0 W/m2
04:50 66.1 °F 63.1 °F 29.99 in ENE 1 mph 2 mph 90% 0.00 in 0 W/m2
04:55 66.1 °F 63.1 °F 29.99 in East 1 mph 2 mph 90% 0.00 in 0 W/m2
05:00 65.9 °F 62.9 °F 29.99 in NE 1 mph 1 mph 90% 0.00 in 0 W/m2
05:05 65.8 °F 62.8 °F 29.99 in NNW 1 mph 1 mph 90% 0.00 in 0 W/m2
05:10 65.7 °F 62.7 °F 29.99 in East 1 mph 1 mph 90% 0.00 in 0 W/m2
05:15 65.5 °F 62.5 °F 29.99 in ENE 1 mph 1 mph 90% 0.00 in 0 W/m2
05:20 65.4 °F 62.4 °F 29.99 in NE 1 mph 1 mph 90% 0.00 in 0 W/m2
05:25 65.4 °F 62.4 °F 29.99 in NE 1 mph 1 mph 90% 0.00 in 0 W/m2
05:30 65.2 °F 62.2 °F 30.00 in ENE 1 mph 1 mph 90% 0.00 in 0 W/m2
05:35 65.1 °F 62.1 °F 30.00 in NE 1 mph 1 mph 90% 0.00 in 0 W/m2
05:40 65 °F 62 °F 30.00 in Calm     90% 0.00 in 0 W/m2
05:45 64.9 °F 61.9 °F 30.00 in Calm     90% 0.00 in 0 W/m2
05:50 64.8 °F 61.8 °F 30.00 in Calm     90% 0.00 in 0 W/m2
05:55 64.7 °F 61.7 °F 30.00 in Calm   1 mph 90% 0.00 in 0 W/m2
06:00 64.5 °F 61.5 °F 30.00 in NNE 1 mph 2 mph 90% 0.00 in 0 W/m2
06:05 64.3 °F 61 °F 30.00 in NE 1 mph 2 mph 89% 0.00 in 0 W/m2
06:10 64.3 °F 61.3 °F 30.00 in ENE 1 mph 1 mph 90% 0.00 in 0 W/m2
06:15 64.3 °F 61.3 °F 30.01 in Calm   1 mph 90% 0.00 in 0 W/m2
06:20 64.1 °F 61.1 °F 30.01 in Calm     90% 0.00 in 5 W/m2
06:25 64.2 °F 61.2 °F 30.01 in NE 1 mph 1 mph 90% 0.00 in 9 W/m2
06:30 64.1 °F 61.1 °F 30.01 in ESE 1 mph 1 mph 90% 0.00 in 12 W/m2
06:35 64.2 °F 61.2 °F 30.01 in East 1 mph 1 mph 90% 0.00 in 16 W/m2
06:40 64.2 °F 61.5 °F 30.01 in ESE 1 mph 1 mph 91% 0.00 in 21 W/m2
06:45 64.3 °F 61.6 °F 30.01 in NE 1 mph 1 mph 91% 0.00 in 25 W/m2
06:50 64.3 °F 61.6 °F 30.02 in East 1 mph 1 mph 91% 0.00 in 26 W/m2
06:55 64.3 °F 61.6 °F 30.02 in ENE 1 mph 1 mph 91% 0.00 in 30 W/m2
07:00 64.4 °F 61.7 °F 30.02 in NE 1 mph 1 mph 91% 0.00 in 32 W/m2
07:05 64.5 °F 61.8 °F 30.02 in NE 1 mph 1 mph 91% 0.00 in 33 W/m2
07:10 64.5 °F 61.8 °F 30.02 in ENE 1 mph 1 mph 91% 0.00 in 35 W/m2
07:15 64.5 °F 61.8 °F 30.02 in ESE 1 mph 1 mph 91% 0.00 in 40 W/m2
07:20 64.6 °F 61.9 °F 30.02 in East 1 mph 1 mph 91% 0.00 in 39 W/m2
07:25 64.7 °F 62 °F 30.02 in ENE 1 mph 1 mph 91% 0.00 in 46 W/m2
07:30 64.8 °F 62.4 °F 30.02 in NE 2 mph 2 mph 92% 0.00 in 51 W/m2
07:35 64.9 °F 62.5 °F 30.02 in NE 2 mph 2 mph 92% 0.00 in 56 W/m2
07:40 65.1 °F 62.7 °F 30.02 in East 2 mph 2 mph 92% 0.00 in 63 W/m2
07:45 65.3 °F 62.9 °F 30.02 in NE 2 mph 2 mph 92% 0.00 in 67 W/m2
07:50 65.4 °F 63 °F 30.02 in East 2 mph 2 mph 92% 0.00 in 69 W/m2
07:55 65.6 °F 63.2 °F 30.03 in ESE 2 mph 2 mph 92% 0.00 in 70 W/m2
08:00 65.8 °F 63.4 °F 30.03 in ESE 2 mph 4 mph 92% 0.00 in 77 W/m2
08:05 65.9 °F 63.5 °F 30.03 in ENE 2 mph 4 mph 92% 0.00 in 74 W/m2
08:10 66 °F 63.6 °F 30.03 in ESE 2 mph 2 mph 92% 0.00 in 76 W/m2
08:15 66.2 °F 63.8 °F 30.03 in East 1 mph 2 mph 92% 0.00 in 90 W/m2
08:20 66.4 °F 64 °F 30.03 in ESE 2 mph 3 mph 92% 0.00 in 186 W/m2
08:25 66.5 °F 64.1 °F 30.03 in NE 2 mph 3 mph 92% 0.00 in 206 W/m2
08:30 66.7 °F 64.3 °F 30.03 in ESE 2 mph 2 mph 92% 0.00 in 216 W/m2
08:35 66.9 °F 64.5 °F 30.03 in East 2 mph 3 mph 92% 0.00 in 225 W/m2
08:40 67.1 °F 64.7 °F 30.03 in East 2 mph 3 mph 92% 0.00 in 241 W/m2
08:45 67.3 °F 64.9 °F 30.03 in East 2 mph 3 mph 92% 0.00 in 253 W/m2
08:50 67.4 °F 65 °F 30.03 in East 2 mph 3 mph 92% 0.00 in 267 W/m2
08:55 67.6 °F 65.2 °F 30.03 in ESE 2 mph 3 mph 92% 0.00 in 288 W/m2
09:00 67.9 °F 65.5 °F 30.03 in ENE 2 mph 2 mph 92% 0.00 in 302 W/m2
09:05 68 °F 65.6 °F 30.03 in ESE 2 mph 2 mph 92% 0.00 in 320 W/m2
09:10 68.2 °F 65.8 °F 30.03 in NE 2 mph 2 mph 92% 0.00 in 332 W/m2
09:15 68.3 °F 65.9 °F 30.03 in SE 2 mph 2 mph 92% 0.00 in 343 W/m2
09:20 68.4 °F 65.7 °F 30.03 in East 2 mph 2 mph 91% 0.00 in 359 W/m2
09:25 68.7 °F 66 °F 30.02 in ESE 2 mph 2 mph 91% 0.00 in 369 W/m2
09:30 69 °F 66.3 °F 30.03 in SE 2 mph 2 mph 91% 0.00 in 380 W/m2
09:35 69.2 °F 66.1 °F 30.02 in ESE 2 mph 2 mph 90% 0.00 in 396 W/m2
09:40 69.3 °F 65.9 °F 30.02 in SE 1 mph 1 mph 89% 0.00 in 413 W/m2
09:45 69.5 °F 65.8 °F 30.02 in East 1 mph 1 mph 88% 0.00 in 424 W/m2
09:50 69.7 °F 66 °F 30.02 in SE 1 mph 2 mph 88% 0.00 in 438 W/m2
09:55 69.9 °F 66.2 °F 30.02 in East 1 mph 2 mph 88% 0.00 in 450 W/m2
10:00 70.1 °F 66.4 °F 30.01 in East 1 mph 1 mph 88% 0.00 in 461 W/m2
10:05 70.3 °F 66.2 °F 30.01 in SE 1 mph 1 mph 87% 0.00 in 471 W/m2
10:10 70.4 °F 66.3 °F 30.01 in ENE 1 mph 1 mph 87% 0.00 in 483 W/m2
10:15 70.5 °F 66.1 °F 30.01 in West 1 mph 2 mph 86% 0.00 in 496 W/m2
10:20 70.6 °F 66.2 °F 30.01 in NNW 1 mph 5 mph 86% 0.00 in 508 W/m2
10:25 70.7 °F 66.3 °F 30.02 in WNW 2 mph 5 mph 86% 0.00 in 515 W/m2
10:30 70.8 °F 66.4 °F 30.01 in North 2 mph 2 mph 86% 0.00 in 522 W/m2
10:35 71 °F 66.6 °F 30.01 in ENE 2 mph 3 mph 86% 0.00 in 533 W/m2
10:40 71.2 °F 66.5 °F 30.01 in East 2 mph 2 mph 85% 0.00 in 554 W/m2
10:45 71.4 °F 67 °F 30.01 in East 2 mph 3 mph 86% 0.00 in 568 W/m2
10:50 71.5 °F 66.8 °F 30.01 in NNE 2 mph 3 mph 85% 0.00 in 571 W/m2
10:55 71.7 °F 66.9 °F 30.01 in ENE 2 mph 3 mph 85% 0.00 in 580 W/m2
11:00 71.8 °F 66.7 °F 30.01 in ENE 2 mph 2 mph 84% 0.00 in 584 W/m2
11:05 71.9 °F 66.5 °F 30.01 in East 2 mph 2 mph 83% 0.00 in 585 W/m2
11:10 72.1 °F 66.6 °F 30.01 in NE 2 mph 2 mph 83% 0.00 in 594 W/m2
11:15 72.2 °F 67.1 °F 30.02 in NNW 2 mph 2 mph 84% 0.00 in 613 W/m2
11:20 72.5 °F 67.4 °F 30.02 in North 2 mph 2 mph 84% 0.00 in 626 W/m2
11:25 72.6 °F 66.8 °F 30.01 in NNW 2 mph 2 mph 82% 0.00 in 633 W/m2
11:30 72.8 °F 67 °F 30.02 in NNW 2 mph 4 mph 82% 0.00 in 642 W/m2
11:35 72.8 °F 66.6 °F 30.02 in WNW 2 mph 4 mph 81% 0.00 in 657 W/m2
11:40 73 °F 67.2 °F 30.02 in NE 3 mph 3 mph 82% 0.00 in 668 W/m2
11:45 73.3 °F 67.5 °F 30.02 in NE 2 mph 3 mph 82% 0.00 in 673 W/m2
11:50 73.5 °F 67.3 °F 30.02 in ENE 2 mph 2 mph 81% 0.00 in 691 W/m2
11:55 73.6 °F 67.4 °F 30.03 in ENE 2 mph 2 mph 81% 0.00 in 710 W/m2
12:00 73.8 °F 67.2 °F 30.03 in NNE 2 mph 3 mph 80% 0.00 in 721 W/m2
12:05 73.9 °F 67.3 °F 30.03 in NW 2 mph 3 mph 80% 0.00 in 719 W/m2
12:10 74.2 °F 67.3 °F 30.03 in NW 2 mph 3 mph 79% 0.00 in 738 W/m2
12:15 74.4 °F 67.1 °F 30.02 in WSW 2 mph 3 mph 78% 0.00 in 752 W/m2
12:20 74.6 °F 67.3 °F 30.03 in NNW 2 mph 4 mph 78% 0.00 in 763 W/m2
12:25 75.3 °F 67.6 °F 30.03 in West 2 mph 4 mph 77% 0.00 in 786 W/m2
12:30 75.3 °F 67.2 °F 30.03 in WNW 3 mph 3 mph 76% 0.00 in 728 W/m2
12:35 75.4 °F 67.7 °F 30.03 in NNW 3 mph 3 mph 77% 0.00 in 788 W/m2
12:40 75.5 °F 67.8 °F 30.02 in NNE 2 mph 2 mph 77% 0.00 in 724 W/m2
12:45 75.1 °F 66.6 °F 30.02 in WNW 2 mph 2 mph 75% 0.00 in 605 W/m2
12:50 75.3 °F 67.2 °F 30.02 in NW 3 mph 4 mph 76% 0.00 in 791 W/m2
12:55 75.2 °F 67.1 °F 30.01 in WNW 3 mph 4 mph 76% 0.00 in 782 W/m2
13:00 75.1 °F 66.6 °F 30.02 in NW 4 mph 4 mph 75% 0.00 in 861 W/m2
13:05 75.4 °F 66.5 °F 30.01 in North 4 mph 6 mph 74% 0.00 in 728 W/m2
13:10 75.4 °F 66.5 °F 30.01 in NW 3 mph 3 mph 74% 0.00 in 626 W/m2
13:15 75.6 °F 67.5 °F 30.02 in NE 3 mph 3 mph 76% 0.00 in 758 W/m2
13:20 75.5 °F 67 °F 30.02 in NNE 3 mph 3 mph 75% 0.00 in 591 W/m2
13:25 75.6 °F 67.1 °F 30.01 in WNW 3 mph 4 mph 75% 0.00 in 638 W/m2
13:30 75.6 °F 67.1 °F 30.01 in NNW 3 mph 3 mph 75% 0.00 in 652 W/m2
13:35 75.9 °F 67.4 °F 30.01 in WNW 2 mph 3 mph 75% 0.00 in 691 W/m2
13:40 75.6 °F 67.5 °F 30.01 in NNW 2 mph 2 mph 76% 0.00 in 640 W/m2
13:45 76.1 °F 68 °F 30.01 in SSE 2 mph 2 mph 76% 0.00 in 717 W/m2
13:50 76.1 °F 68.4 °F 30.00 in ENE 3 mph 3 mph 77% 0.00 in 761 W/m2
13:55 75.7 °F 68.4 °F 30.00 in SE 3 mph 4 mph 78% 0.00 in 780 W/m2
14:00 75.8 °F 68.4 °F 30.00 in NE 3 mph 3 mph 78% 0.00 in 812 W/m2
14:05 75.7 °F 68 °F 30.00 in ESE 3 mph 3 mph 77% 0.00 in 833 W/m2
14:10 76 °F 68.3 °F 29.99 in NE 3 mph 3 mph 77% 0.00 in 831 W/m2
14:15 76.5 °F 69.5 °F 29.99 in North 2 mph 3 mph 79% 0.00 in 759 W/m2
14:20 76.2 °F 68.5 °F 29.98 in East 3 mph 3 mph 77% 0.00 in 656 W/m2
14:25 75.9 °F 68.5 °F 29.98 in ENE 3 mph 3 mph 78% 0.00 in 819 W/m2
14:30 75.7 °F 68.4 °F 29.98 in NE 3 mph 3 mph 78% 0.00 in 812 W/m2
14:35 75.6 °F 68.3 °F 29.98 in ENE 3 mph 4 mph 78% 0.00 in 812 W/m2
14:40 75.8 °F 68.1 °F 29.98 in NNW 3 mph 5 mph 77% 0.00 in 810 W/m2
14:45 76.1 °F 69.1 °F 29.98 in NW 3 mph 6 mph 79% 0.00 in 807 W/m2
14:50 76.4 °F 69 °F 29.98 in East 3 mph 3 mph 78% 0.00 in 803 W/m2
14:55 76.4 °F 68.7 °F 29.98 in NW 3 mph 4 mph 77% 0.00 in 793 W/m2
15:00 76.4 °F 69 °F 29.98 in East 3 mph 3 mph 78% 0.00 in 795 W/m2
15:05 76.5 °F 69.1 °F 29.99 in NNW 3 mph 3 mph 78% 0.00 in 784 W/m2
15:10 76.6 °F 69.2 °F 29.99 in ENE 3 mph 6 mph 78% 0.00 in 777 W/m2
15:15 76.7 °F 69.3 °F 29.99 in SW 3 mph 6 mph 78% 0.00 in 772 W/m2
15:20 76.8 °F 69.4 °F 29.98 in NNE 3 mph 4 mph 78% 0.00 in 768 W/m2
15:25 76.8 °F 69 °F 29.98 in North 3 mph 6 mph 77% 0.00 in 752 W/m2
15:30 76.9 °F 69.1 °F 29.98 in NE 3 mph 3 mph 77% 0.00 in 766 W/m2
15:35 77 °F 68.9 °F 29.98 in NNE 3 mph 3 mph 76% 0.00 in 789 W/m2
15:40 77 °F 68.9 °F 29.98 in NNE 3 mph 5 mph 76% 0.00 in 782 W/m2
15:45 77 °F 68.9 °F 29.98 in NNW 3 mph 5 mph 76% 0.00 in 744 W/m2
15:50 77.2 °F 68.7 °F 29.98 in NNW 2 mph 2 mph 75% 0.00 in 728 W/m2
15:55 77.4 °F 68.9 °F 29.97 in NE 3 mph 4 mph 75% 0.00 in 712 W/m2
16:00 77.5 °F 68.9 °F 29.98 in NE 3 mph 3 mph 75% 0.00 in 701 W/m2
16:05 77.5 °F 68.6 °F 29.98 in NNW 3 mph 7 mph 74% 0.00 in 698 W/m2
16:10 77.4 °F 68.5 °F 29.98 in NE 3 mph 3 mph 74% 0.00 in 687 W/m2
16:15 77.5 °F 67.8 °F 29.98 in NNE 2 mph 4 mph 72% 0.00 in 680 W/m2
16:20 77.5 °F 67.8 °F 29.98 in NNE 3 mph 3 mph 72% 0.00 in 670 W/m2
16:25 77.5 °F 67.8 °F 29.98 in ESE 3 mph 6 mph 72% 0.00 in 661 W/m2
16:30 77.5 °F 67.8 °F 29.97 in NE 3 mph 3 mph 72% 0.00 in 645 W/m2
16:35 77.6 °F 67.9 °F 29.97 in West 2 mph 3 mph 72% 0.00 in 631 W/m2
16:40 77.5 °F 67.4 °F 29.97 in ENE 3 mph 5 mph 71% 0.00 in 619 W/m2
16:45 77.6 °F 67.4 °F 29.97 in NE 3 mph 5 mph 71% 0.00 in 612 W/m2
16:50 77.5 °F 66.9 °F 29.97 in West 3 mph 3 mph 70% 0.00 in 585 W/m2
16:55 77.6 °F 67.4 °F 29.97 in ENE 3 mph 3 mph 71% 0.00 in 592 W/m2
17:00 77.6 °F 67 °F 29.97 in ESE 2 mph 2 mph 70% 0.00 in 573 W/m2
17:05 77.8 °F 66.8 °F 29.96 in NNE 2 mph 2 mph 69% 0.00 in 571 W/m2
17:10 78 °F 67.4 °F 29.97 in NNE 2 mph 3 mph 70% 0.00 in 552 W/m2
17:15 78.1 °F 67.5 °F 29.97 in NNW 2 mph 6 mph 70% 0.00 in 543 W/m2
17:20 78.4 °F 67.8 °F 29.97 in NNW 2 mph 2 mph 70% 0.00 in 468 W/m2
17:25 78.5 °F 67.1 °F 29.97 in NE 2 mph 2 mph 68% 0.00 in 534 W/m2
17:30 78.5 °F 67.5 °F 29.97 in ESE 2 mph 2 mph 69% 0.00 in 497 W/m2
17:35 78.4 °F 67.4 °F 29.97 in NNW 2 mph 2 mph 69% 0.00 in 445 W/m2
17:40 78.3 °F 67.7 °F 29.97 in NE 2 mph 2 mph 70% 0.00 in 392 W/m2
17:45 78.4 °F 67.8 °F 29.97 in East 1 mph 2 mph 70% 0.00 in 380 W/m2
17:50 78.3 °F 66.9 °F 29.97 in ENE 2 mph 2 mph 68% 0.00 in 287 W/m2
17:55 78.2 °F 67.2 °F 29.96 in ENE 2 mph 2 mph 69% 0.00 in 258 W/m2
18:00 78.1 °F 67.1 °F 29.96 in ENE 2 mph 2 mph 69% 0.00 in 241 W/m2
18:05 78 °F 67 °F 29.96 in ESE 2 mph 2 mph 69% 0.00 in 193 W/m2
18:10 77.9 °F 66.9 °F 29.95 in NE 2 mph 2 mph 69% 0.00 in 237 W/m2
18:15 77.9 °F 67.3 °F 29.96 in East 2 mph 2 mph 70% 0.00 in 325 W/m2
18:20 77.9 °F 67.3 °F 29.96 in SE 1 mph 2 mph 70% 0.00 in 330 W/m2
18:25 77.9 °F 66.1 °F 29.95 in ESE 1 mph 2 mph 67% 0.00 in 350 W/m2
18:30 77.9 °F 66.1 °F 29.95 in ESE 1 mph 1 mph 67% 0.00 in 320 W/m2
18:35 77.9 °F 64.3 °F 29.95 in ENE 1 mph 1 mph 63% 0.00 in 322 W/m2
18:40 78.2 °F 67.6 °F 29.95 in ESE 1 mph 2 mph 70% 0.00 in 285 W/m2
18:45 78.3 °F 67.7 °F 29.94 in SE 1 mph 2 mph 70% 0.00 in 243 W/m2
18:50 78.4 °F 67.4 °F 29.95 in SE 1 mph 2 mph 69% 0.00 in 181 W/m2
18:55 78.4 °F 67.8 °F 29.94 in ESE 1 mph 2 mph 70% 0.00 in 153 W/m2
19:00 78.4 °F 67 °F 29.94 in East 1 mph 1 mph 68% 0.00 in 128 W/m2
19:05 78.3 °F 67.3 °F 29.94 in East 1 mph 1 mph 69% 0.00 in 102 W/m2
19:10 78.2 °F 66.8 °F 29.93 in SE 1 mph 1 mph 68% 0.00 in 86 W/m2
19:15 78.2 °F 67.6 °F 29.93 in ESE 1 mph 1 mph 70% 0.00 in 84 W/m2
19:20 78.1 °F 67.1 °F 29.93 in SSW 1 mph 1 mph 69% 0.00 in 98 W/m2
19:25 78.1 °F 67.1 °F 29.93 in ESE 1 mph 1 mph 69% 0.00 in 86 W/m2
19:30 78 °F 67.8 °F 29.93 in ESE 1 mph 2 mph 71% 0.00 in 62 W/m2
19:35 77.9 °F 66.9 °F 29.93 in ESE 1 mph 2 mph 69% 0.00 in 54 W/m2
19:40 78 °F 67.4 °F 29.93 in ESE 1 mph 1 mph 70% 0.00 in 47 W/m2
19:45 78 °F 68.2 °F 29.93 in East 1 mph 1 mph 72% 0.00 in 47 W/m2
19:50 78 °F 67.8 °F 29.93 in South 1 mph 1 mph 71% 0.00 in 51 W/m2
19:55 77.9 °F 67.7 °F 29.93 in ESE 1 mph 2 mph 71% 0.00 in 46 W/m2
20:00 77.9 °F 68.1 °F 29.92 in SE 2 mph 3 mph 72% 0.00 in 39 W/m2
20:05 77.8 °F 67.6 °F 29.92 in SE 2 mph 3 mph 71% 0.00 in 35 W/m2
20:10 77.6 °F 68.3 °F 29.92 in SSE 2 mph 2 mph 73% 0.00 in 32 W/m2
20:15 77.4 °F 67.7 °F 29.92 in East 2 mph 2 mph 72% 0.00 in 28 W/m2
20:20 77.3 °F 67.6 °F 29.92 in SSE 1 mph 1 mph 72% 0.00 in 30 W/m2
20:25 77.2 °F 67.9 °F 29.92 in ESE 1 mph 1 mph 73% 0.00 in 30 W/m2
20:30 77.1 °F 67.4 °F 29.91 in South 2 mph 2 mph 72% 0.00 in 25 W/m2
20:35 77 °F 68.1 °F 29.91 in SE 2 mph 2 mph 74% 0.00 in 16 W/m2
20:40 76.9 °F 67.6 °F 29.90 in SE 2 mph 2 mph 73% 0.00 in 11 W/m2
20:45 76.7 °F 67.8 °F 29.90 in WSW 2 mph 2 mph 74% 0.00 in 9 W/m2
20:50 76.5 °F 68 °F 29.90 in ESE 2 mph 3 mph 75% 0.00 in 7 W/m2
20:55 76.4 °F 67.9 °F 29.89 in SE 2 mph 3 mph 75% 0.00 in 5 W/m2
21:00 76.2 °F 67.7 °F 29.89 in WSW 2 mph 2 mph 75% 0.00 in 0 W/m2
21:05 76.1 °F 67.2 °F 29.89 in SSE 2 mph 3 mph 74% 0.00 in 0 W/m2
21:10 76 °F 67.5 °F 29.89 in East 2 mph 2 mph 75% 0.00 in 0 W/m2
21:15 75.8 °F 66.9 °F 29.89 in SE 2 mph 2 mph 74% 0.00 in 0 W/m2
21:20 75.7 °F 66.8 °F 29.89 in South 2 mph 4 mph 74% 0.00 in 0 W/m2
21:25 75.6 °F 67.5 °F 29.89 in SE 2 mph 4 mph 76% 0.00 in 0 W/m2
21:30 75.5 °F 68.2 °F 29.89 in SSE 2 mph 2 mph 78% 0.00 in 0 W/m2
21:35 75.3 °F 67.6 °F 29.89 in East 2 mph 2 mph 77% 0.00 in 0 W/m2
21:40 75.2 °F 67.5 °F 29.90 in NE 2 mph 2 mph 77% 0.00 in 0 W/m2
21:45 75.1 °F 67.4 °F 29.90 in East 2 mph 2 mph 77% 0.00 in 0 W/m2
21:50 74.9 °F 66.8 °F 29.89 in ESE 2 mph 3 mph 76% 0.00 in 0 W/m2
21:55 74.8 °F 67.1 °F 29.90 in SE 2 mph 3 mph 77% 0.00 in 0 W/m2
22:00 74.7 °F 67 °F 29.90 in SE 2 mph 2 mph 77% 0.00 in 0 W/m2
22:05 74.5 °F 67.2 °F 29.90 in SW 2 mph 2 mph 78% 0.00 in 0 W/m2
22:10 74.4 °F 67.5 °F 29.90 in East 2 mph 2 mph 79% 0.00 in 0 W/m2
22:15 74.2 °F 66.9 °F 29.90 in East 1 mph 2 mph 78% 0.00 in 0 W/m2
22:20 74.1 °F 66.8 °F 29.90 in East 2 mph 2 mph 78% 0.00 in 0 W/m2
22:25 74.1 °F 67.2 °F 29.90 in ESE 2 mph 2 mph 79% 0.00 in 0 W/m2
22:30 74 °F 66.7 °F 29.89 in SE 2 mph 2 mph 78% 0.00 in 0 W/m2
22:35 74 °F 67.1 °F 29.89 in East 2 mph 2 mph 79% 0.00 in 0 W/m2
22:40 74 °F 67.1 °F 29.89 in East 2 mph 2 mph 79% 0.00 in 0 W/m2
22:45 74 °F 67.1 °F 29.90 in SSE 2 mph 3 mph 79% 0.00 in 0 W/m2
22:50 74 °F 66.7 °F 29.90 in East 2 mph 2 mph 78% 0.00 in 0 W/m2
22:55 74 °F 67.1 °F 29.90 in East 2 mph 3 mph 79% 0.00 in 0 W/m2
23:00 73.9 °F 66.2 °F 29.90 in WSW 2 mph 2 mph 77% 0.00 in 0 W/m2
23:05 73.9 °F 66.6 °F 29.90 in South 2 mph 3 mph 78% 0.00 in 0 W/m2
23:10 73.8 °F 66.1 °F 29.90 in SW 2 mph 3 mph 77% 0.00 in 0 W/m2
23:15 73.8 °F 66.5 °F 29.90 in SW 2 mph 3 mph 78% 0.00 in 0 W/m2
23:20 73.8 °F 66.1 °F 29.89 in East 2 mph 2 mph 77% 0.00 in 0 W/m2
23:25 73.8 °F 66.5 °F 29.89 in SSW 2 mph 2 mph 78% 0.00 in 0 W/m2
23:30 73.8 °F 66.5 °F 29.88 in East 2 mph 3 mph 78% 0.00 in 0 W/m2
23:35 73.7 °F 66 °F 29.89 in WSW 2 mph 3 mph 77% 0.00 in 0 W/m2
23:40 73.7 °F 66.8 °F 29.89 in WSW 2 mph 2 mph 79% 0.00 in 0 W/m2
23:45 73.7 °F 66.4 °F 29.89 in NW 2 mph 2 mph 78% 0.00 in 0 W/m2
23:50 73.7 °F 66 °F 29.89 in NE 2 mph 2 mph 77% 0.00 in 0 W/m2
Sand Point, Michigan, USA
Compliments of Weather Underground - 2 mb